createdAt,value
2023-03-20T00:00:34.262Z,5.00
2023-03-20T00:03:02.532Z,4.93
2023-03-20T00:05:31.996Z,4.40
2023-03-20T00:08:00.136Z,5.07
2023-03-20T00:10:36.937Z,5.60
2023-03-20T00:13:06.618Z,5.20
2023-03-20T00:15:38.551Z,4.97
2023-03-20T00:18:16.556Z,4.72
2023-03-20T00:20:44.506Z,5.18
2023-03-20T00:23:12.390Z,4.85
2023-03-20T00:25:43.237Z,4.68
2023-03-20T00:28:38.998Z,4.85
2023-03-20T00:31:15.260Z,4.43
2023-03-20T00:33:43.173Z,4.32
2023-03-20T00:36:11.233Z,4.25
2023-03-20T00:38:41.416Z,4.65
2023-03-20T00:41:23.189Z,4.25
2023-03-20T00:43:53.351Z,4.07
2023-03-20T00:46:21.295Z,3.90
2023-03-20T00:48:49.881Z,4.00
2023-03-20T00:51:18.304Z,4.22
2023-03-20T00:53:46.141Z,4.40
2023-03-20T00:56:31.959Z,4.55
2023-03-20T00:59:01.470Z,3.95
2023-03-20T01:01:30.286Z,4.40
2023-03-20T01:03:58.154Z,3.67
2023-03-20T01:06:25.975Z,4.25
2023-03-20T01:08:53.854Z,4.75
2023-03-20T01:11:24.876Z,4.70
2023-03-20T01:13:54.194Z,4.38
2023-03-20T01:16:24.487Z,4.15
2023-03-20T01:18:52.856Z,4.85
2023-03-20T01:21:21.852Z,4.60
2023-03-20T01:23:51.267Z,4.22
2023-03-20T01:26:25.154Z,4.40
2023-03-20T01:28:54.404Z,5.15
2023-03-20T01:31:22.324Z,4.88
2023-03-20T01:33:50.440Z,5.03
2023-03-20T01:36:22.559Z,5.38
2023-03-20T01:38:56.818Z,5.07
2023-03-20T01:41:27.566Z,5.10
2023-03-20T01:43:56.790Z,4.85
2023-03-20T01:46:26.595Z,5.10
2023-03-20T01:49:10.318Z,5.18
2023-03-20T01:51:38.196Z,4.97
2023-03-20T01:54:16.382Z,5.32
2023-03-20T01:56:57.689Z,5.30
2023-03-20T01:59:30.682Z,4.65
2023-03-20T02:01:59.363Z,5.00
2023-03-20T02:04:32.100Z,5.00
2023-03-20T02:07:08.841Z,4.75
2023-03-20T02:09:41.098Z,4.93
2023-03-20T02:12:14.410Z,5.43
2023-03-20T02:14:45.306Z,4.32
2023-03-20T02:17:22.543Z,5.15
2023-03-20T02:20:08.092Z,5.38
2023-03-20T02:23:09.068Z,5.45
2023-03-20T02:29:16.828Z,4.13
2023-03-20T02:32:21.785Z,4.97
2023-03-20T02:35:06.456Z,5.03
2023-03-20T02:37:59.557Z,4.85
2023-03-20T02:40:34.976Z,4.90
2023-03-20T02:43:10.108Z,5.63
2023-03-20T02:45:46.825Z,5.72
2023-03-20T02:48:28.640Z,5.07
2023-03-20T02:51:02.090Z,5.65
2023-03-20T02:53:48.614Z,5.68
2023-03-20T02:56:23.379Z,5.05
2023-03-20T02:58:56.065Z,5.68
2023-03-20T03:01:31.748Z,5.75
2023-03-20T03:04:03.741Z,5.45
2023-03-20T03:06:33.456Z,5.50
2023-03-20T03:09:07.076Z,5.50
2023-03-20T03:11:40.075Z,5.72
2023-03-20T03:14:09.198Z,5.47
2023-03-20T03:16:39.451Z,5.55
2023-03-20T03:19:11.128Z,6.10
2023-03-20T03:21:41.502Z,5.82
2023-03-20T03:24:39.965Z,5.95
2023-03-20T03:27:18.486Z,6.05
2023-03-20T03:29:52.454Z,5.95
2023-03-20T03:32:27.369Z,6.15
2023-03-20T03:34:56.654Z,5.57
2023-03-20T03:37:35.282Z,5.80
2023-03-20T03:40:14.223Z,5.97
2023-03-20T03:42:50.723Z,5.60
2023-03-20T03:45:24.620Z,5.32
2023-03-20T03:47:57.925Z,5.90
2023-03-20T03:50:30.936Z,5.55
2023-03-20T03:53:05.945Z,5.80
2023-03-20T03:55:40.583Z,5.82
2023-03-20T03:58:15.980Z,5.72
2023-03-20T04:00:47.968Z,5.57
2023-03-20T04:03:17.011Z,6.07
2023-03-20T04:05:47.372Z,5.95
2023-03-20T04:08:16.430Z,5.57
2023-03-20T04:10:45.614Z,5.28
2023-03-20T04:13:13.468Z,5.50
2023-03-20T04:15:41.636Z,6.03
2023-03-20T04:18:15.579Z,6.35
2023-03-20T04:20:44.452Z,6.68
2023-03-20T04:23:12.246Z,6.03
2023-03-20T04:25:40.487Z,5.88
2023-03-20T04:28:11.601Z,5.72
2023-03-20T04:30:56.282Z,5.90
2023-03-20T04:33:36.015Z,5.43
2023-03-20T04:36:21.748Z,5.15
2023-03-20T04:38:51.008Z,5.43
2023-03-20T04:41:21.171Z,5.47
2023-03-20T04:43:54.297Z,5.70
2023-03-20T04:46:23.210Z,6.40
2023-03-20T04:48:51.243Z,5.95
2023-03-20T04:51:20.049Z,5.47
2023-03-20T04:53:52.409Z,4.97
2023-03-20T04:56:20.299Z,5.57
2023-03-20T04:58:49.973Z,5.88
2023-03-20T05:01:23.276Z,5.65
2023-03-20T05:03:52.081Z,6.18
2023-03-20T05:06:19.947Z,6.05
2023-03-20T05:08:48.022Z,5.90
2023-03-20T05:11:18.890Z,5.60
2023-03-20T05:14:06.788Z,5.57
2023-03-20T05:17:14.151Z,4.95
2023-03-20T05:20:00.464Z,5.47
2023-03-20T05:22:50.291Z,5.18
2023-03-20T05:25:35.064Z,5.40
2023-03-20T05:28:23.336Z,5.35
2023-03-20T05:31:11.981Z,5.40
2023-03-20T05:34:05.329Z,5.20
2023-03-20T05:36:56.673Z,5.78
2023-03-20T05:39:32.014Z,5.65
2023-03-20T05:42:13.598Z,6.03
2023-03-20T05:44:59.793Z,6.13
2023-03-20T05:50:26.173Z,5.57
2023-03-20T05:53:07.420Z,5.97
2023-03-20T05:56:01.409Z,6.15
2023-03-20T05:58:42.275Z,6.35
2023-03-20T06:01:28.545Z,6.68
2023-03-20T06:04:12.364Z,6.40
2023-03-20T06:07:07.585Z,6.80
2023-03-20T06:09:37.043Z,6.50
2023-03-20T06:12:09.933Z,6.05
2023-03-20T06:14:38.546Z,5.78
2023-03-20T06:17:08.961Z,7.05
2023-03-20T06:19:36.821Z,6.50
2023-03-20T06:22:04.644Z,6.97
2023-03-20T06:24:35.415Z,6.72
2023-03-20T06:27:03.387Z,6.32
2023-03-20T06:29:31.326Z,6.53
2023-03-20T06:32:12.331Z,6.68
2023-03-20T06:34:40.168Z,6.28
2023-03-20T06:37:08.559Z,6.43
2023-03-20T06:39:37.874Z,6.47
2023-03-20T06:42:07.755Z,6.20
2023-03-20T06:44:37.358Z,6.10
2023-03-20T06:47:15.706Z,5.72
2023-03-20T06:49:45.897Z,5.78
2023-03-20T06:52:17.577Z,5.72
2023-03-20T06:54:52.184Z,5.40
2023-03-20T06:57:20.411Z,5.53
2023-03-20T06:59:48.294Z,5.80
2023-03-20T07:02:16.289Z,5.30
2023-03-20T07:04:44.561Z,5.15
2023-03-20T07:07:12.695Z,5.80
2023-03-20T07:09:42.294Z,4.70
2023-03-20T07:12:15.023Z,4.65
2023-03-20T07:14:44.175Z,5.22
2023-03-20T07:17:16.810Z,4.43
2023-03-20T07:19:45.247Z,4.28
2023-03-20T07:22:22.596Z,4.78
2023-03-20T07:24:51.893Z,5.28
2023-03-20T07:27:23.249Z,4.68
2023-03-20T07:29:54.849Z,4.35
2023-03-20T07:32:24.119Z,4.45
2023-03-20T07:34:53.385Z,4.63
2023-03-20T07:37:21.702Z,4.80
2023-03-20T07:39:58.893Z,4.45
2023-03-20T07:42:32.558Z,4.43
2023-03-20T07:45:09.360Z,4.15
2023-03-20T07:47:37.496Z,4.40
2023-03-20T07:50:08.289Z,4.85
2023-03-20T07:52:36.587Z,5.22
2023-03-20T07:55:04.857Z,5.13
2023-03-20T07:57:34.604Z,4.53
2023-03-20T08:00:08.848Z,4.63
2023-03-20T08:02:42.341Z,4.60
2023-03-20T08:05:10.811Z,4.70
2023-03-20T08:07:38.776Z,4.75
2023-03-20T08:10:07.484Z,4.57
2023-03-20T08:12:36.956Z,4.78
2023-03-20T08:15:05.674Z,4.47
2023-03-20T08:17:33.533Z,4.38
2023-03-20T08:20:01.753Z,4.15
2023-03-20T08:22:29.505Z,4.55
2023-03-20T08:24:57.336Z,4.30
2023-03-20T08:27:25.498Z,4.35
2023-03-20T08:29:54.828Z,4.32
2023-03-20T08:32:22.550Z,4.60
2023-03-20T08:34:50.490Z,4.82
2023-03-20T08:37:19.742Z,4.22
2023-03-20T08:39:47.882Z,4.10
2023-03-20T08:42:16.316Z,3.88
2023-03-20T08:44:45.051Z,4.07
2023-03-20T08:47:14.171Z,4.10
2023-03-20T08:49:43.199Z,4.10
2023-03-20T08:52:11.164Z,3.83
2023-03-20T08:54:39.087Z,4.00
2023-03-20T08:57:07.040Z,3.83
2023-03-20T08:59:34.868Z,3.50
2023-03-20T09:02:02.720Z,3.75
2023-03-20T09:04:32.008Z,3.33
2023-03-20T09:07:01.260Z,3.42
2023-03-20T09:09:29.507Z,3.53
2023-03-20T09:11:57.895Z,3.45
2023-03-20T09:14:26.840Z,3.40
2023-03-20T09:16:54.931Z,3.03
2023-03-20T09:19:23.004Z,3.53
2023-03-20T09:21:52.162Z,2.95
2023-03-20T09:24:19.967Z,3.30
2023-03-20T09:26:47.864Z,3.40
2023-03-20T09:29:15.807Z,3.72
2023-03-20T09:31:44.399Z,3.40
2023-03-20T09:34:12.554Z,3.10
2023-03-20T09:36:40.854Z,3.20
2023-03-20T09:39:10.100Z,2.85
2023-03-20T09:41:53.150Z,3.10
2023-03-20T09:44:40.375Z,2.60
2023-03-20T09:47:20.943Z,2.60
2023-03-20T09:50:00.249Z,2.50
2023-03-20T09:52:32.114Z,2.33
2023-03-20T09:55:08.063Z,2.40
2023-03-20T09:57:40.706Z,1.90
2023-03-20T10:00:13.950Z,2.00
2023-03-20T10:02:49.076Z,2.17
2023-03-20T10:05:24.223Z,1.85
2023-03-20T10:07:53.650Z,2.00
2023-03-20T10:10:28.779Z,2.30
2023-03-20T10:13:07.203Z,1.75
2023-03-20T10:15:44.751Z,1.92
2023-03-20T10:18:21.672Z,1.90
2023-03-20T10:20:56.683Z,2.53
2023-03-20T10:23:34.678Z,1.90
2023-03-20T10:26:11.899Z,1.85
2023-03-20T10:28:45.713Z,1.88
2023-03-20T10:31:33.336Z,2.08
2023-03-20T10:34:15.106Z,1.67
2023-03-20T10:36:55.850Z,2.00
2023-03-20T10:39:36.093Z,1.98
2023-03-20T10:42:14.830Z,1.83
2023-03-20T10:44:48.384Z,2.00
2023-03-20T10:47:20.040Z,1.65
2023-03-20T10:49:51.825Z,2.15
2023-03-20T10:52:23.610Z,1.88
2023-03-20T10:54:56.598Z,1.75
2023-03-20T10:59:57.083Z,2.20
2023-03-20T11:02:29.980Z,1.88
2023-03-20T11:07:28.588Z,2.33
2023-03-20T11:10:16.577Z,2.20
2023-03-20T11:12:48.387Z,2.13
2023-03-20T11:15:22.310Z,2.28
2023-03-20T11:17:58.288Z,2.10
2023-03-20T11:20:27.950Z,1.80
2023-03-20T11:23:00.608Z,1.75
2023-03-20T11:25:35.462Z,1.98
2023-03-20T11:28:39.072Z,2.30
2023-03-20T11:31:16.570Z,2.08
2023-03-20T11:33:46.238Z,2.40
2023-03-20T11:36:24.343Z,2.50
2023-03-20T11:38:54.471Z,1.98
2023-03-20T11:41:27.429Z,2.25
2023-03-20T11:43:56.773Z,2.15
2023-03-20T11:46:25.998Z,2.10
2023-03-20T11:49:06.957Z,1.83
2023-03-20T11:51:38.176Z,1.65
2023-03-20T11:54:09.025Z,1.60
2023-03-20T11:56:37.751Z,1.92
2023-03-20T11:59:15.818Z,1.77
2023-03-20T12:01:47.232Z,1.98
2023-03-20T12:04:17.352Z,1.80
2023-03-20T12:06:54.975Z,1.95
2023-03-20T12:09:32.801Z,1.73
2023-03-20T12:12:03.707Z,2.10
2023-03-20T12:14:39.849Z,2.17
2023-03-20T12:17:31.372Z,1.67
2023-03-20T12:20:04.812Z,1.50
2023-03-20T12:22:37.434Z,1.60
2023-03-20T12:25:17.807Z,1.75
2023-03-20T12:27:51.455Z,1.58
2023-03-20T12:30:29.484Z,1.52
2023-03-20T12:33:03.941Z,1.55
2023-03-20T12:35:34.686Z,1.80
2023-03-20T12:38:02.771Z,1.55
2023-03-20T12:40:45.465Z,1.67
2023-03-20T12:43:16.346Z,1.60
2023-03-20T12:45:55.744Z,1.40
2023-03-20T12:48:55.498Z,1.80
2023-03-20T12:51:32.252Z,1.30
2023-03-20T12:54:15.166Z,1.27
2023-03-20T12:57:00.238Z,1.88
2023-03-20T12:59:36.468Z,1.50
2023-03-20T13:02:20.074Z,1.63
2023-03-20T13:05:10.409Z,1.60
2023-03-20T13:07:53.962Z,1.63
2023-03-20T13:10:23.515Z,1.65
2023-03-20T13:13:05.480Z,1.77
2023-03-20T13:15:46.808Z,1.77
2023-03-20T13:18:22.189Z,2.10
2023-03-20T13:20:53.014Z,2.05
2023-03-20T13:23:30.270Z,2.35
2023-03-20T13:26:09.623Z,2.10
2023-03-20T13:28:43.935Z,2.10
2023-03-20T13:31:22.044Z,1.85
2023-03-20T13:33:56.862Z,1.92
2023-03-20T13:36:49.925Z,2.15
2023-03-20T13:39:23.829Z,2.20
2023-03-20T13:41:53.478Z,2.05
2023-03-20T13:44:27.823Z,1.85
2023-03-20T13:47:01.069Z,2.45
2023-03-20T13:49:37.576Z,2.20
2023-03-20T13:52:14.422Z,2.00
2023-03-20T13:55:00.899Z,2.20
2023-03-20T13:57:49.530Z,1.85
2023-03-20T14:00:28.844Z,1.80
2023-03-20T14:03:19.228Z,1.90
2023-03-20T14:05:48.865Z,1.63
2023-03-20T14:08:32.333Z,1.73
2023-03-20T14:11:32.543Z,1.88
2023-03-20T14:14:08.902Z,1.30
2023-03-20T14:16:37.160Z,2.00
2023-03-20T14:19:17.425Z,2.00
2023-03-20T14:21:48.721Z,1.80
2023-03-20T14:24:19.642Z,1.75
2023-03-20T14:26:51.155Z,1.58
2023-03-20T14:29:38.297Z,1.75
2023-03-20T14:32:32.813Z,2.20
2023-03-20T14:35:20.344Z,1.70
2023-03-20T14:38:06.782Z,1.80
2023-03-20T14:40:40.430Z,2.10
2023-03-20T14:43:18.944Z,2.30
2023-03-20T14:45:53.146Z,1.77
2023-03-20T14:48:31.989Z,1.90
2023-03-20T14:51:20.773Z,2.10
2023-03-20T14:53:57.033Z,1.60
2023-03-20T14:56:34.284Z,1.83
2023-03-20T14:59:05.511Z,1.80
2023-03-20T15:01:58.414Z,1.90
2023-03-20T15:04:33.912Z,1.90
2023-03-20T15:07:04.586Z,1.67
2023-03-20T15:09:38.842Z,2.08
2023-03-20T15:12:07.469Z,2.72
2023-03-20T15:14:42.438Z,1.88
2023-03-20T15:17:19.951Z,1.83
2023-03-20T15:19:50.312Z,2.17
2023-03-20T15:22:20.304Z,2.00
2023-03-20T15:24:57.851Z,2.10
2023-03-20T15:27:29.772Z,2.08
2023-03-20T15:29:58.809Z,1.77
2023-03-20T15:32:26.840Z,1.90
2023-03-20T15:34:54.926Z,2.03
2023-03-20T15:37:25.957Z,2.00
2023-03-20T15:39:59.195Z,1.88
2023-03-20T15:42:28.005Z,2.28
2023-03-20T15:44:57.017Z,1.90
2023-03-20T15:47:26.235Z,2.03
2023-03-20T15:49:56.841Z,2.00
2023-03-20T15:52:32.424Z,1.60
2023-03-20T15:55:06.196Z,2.20
2023-03-20T15:57:37.500Z,2.10
2023-03-20T16:00:09.146Z,2.10
2023-03-20T16:02:38.370Z,1.65
2023-03-20T16:05:13.521Z,1.58
2023-03-20T16:07:42.225Z,1.98
2023-03-20T16:10:23.085Z,2.25
2023-03-20T16:12:54.478Z,2.00
2023-03-20T16:15:25.611Z,1.80
2023-03-20T16:17:56.229Z,2.00
2023-03-20T16:20:27.832Z,1.90
2023-03-20T16:23:01.166Z,1.90
2023-03-20T16:25:30.661Z,1.65
2023-03-20T16:27:59.805Z,1.60
2023-03-20T16:30:32.635Z,2.00
2023-03-20T16:33:02.772Z,1.90
2023-03-20T16:35:35.008Z,1.83
2023-03-20T16:38:04.377Z,2.00
2023-03-20T16:40:35.747Z,1.70
2023-03-20T16:43:08.582Z,1.83
2023-03-20T16:45:37.411Z,1.60
2023-03-20T16:48:32.166Z,1.60
2023-03-20T16:51:11.521Z,1.60
2023-03-20T16:53:45.651Z,1.75
2023-03-20T16:56:17.849Z,1.90
2023-03-20T16:58:46.855Z,1.55
2023-03-20T17:01:20.123Z,1.75
2023-03-20T17:03:52.262Z,1.58
2023-03-20T17:06:39.459Z,1.77
2023-03-20T17:09:20.852Z,2.40
2023-03-20T17:11:52.751Z,2.10
2023-03-20T17:14:20.787Z,1.85
2023-03-20T17:16:48.841Z,2.15
2023-03-20T17:19:18.665Z,1.75
2023-03-20T17:21:47.703Z,1.92
2023-03-20T17:24:17.012Z,2.13
2023-03-20T17:26:48.512Z,1.80
2023-03-20T17:29:17.745Z,1.90
2023-03-20T17:31:46.034Z,2.33
2023-03-20T17:34:15.800Z,2.15
2023-03-20T17:36:43.865Z,1.77
2023-03-20T17:39:18.882Z,1.95
2023-03-20T17:41:47.474Z,2.10
2023-03-20T17:44:16.836Z,1.90
2023-03-20T17:46:57.367Z,2.05
2023-03-20T17:49:28.012Z,1.83
2023-03-20T17:51:56.448Z,1.73
2023-03-20T17:54:24.365Z,2.10
2023-03-20T17:56:52.191Z,1.90
2023-03-20T17:59:21.471Z,2.05
2023-03-20T18:01:49.366Z,2.22
2023-03-20T18:04:17.264Z,1.85
2023-03-20T18:06:47.094Z,1.90
2023-03-20T18:09:16.058Z,1.80
2023-03-20T18:11:44.044Z,2.00
2023-03-20T18:14:12.407Z,2.10
2023-03-20T18:16:41.929Z,2.20
2023-03-20T18:19:15.843Z,1.80
2023-03-20T18:21:43.812Z,2.80
2023-03-20T18:24:11.698Z,2.03
2023-03-20T18:26:39.691Z,3.00
2023-03-20T18:29:07.636Z,2.75
2023-03-20T18:31:35.652Z,2.97
2023-03-20T18:34:05.277Z,3.50
2023-03-20T18:36:33.494Z,2.20
2023-03-20T18:39:01.491Z,2.10
2023-03-20T18:41:29.597Z,2.08
2023-03-20T18:43:57.682Z,2.30
2023-03-20T18:46:27.083Z,2.05
2023-03-20T18:48:55.682Z,1.80
2023-03-20T18:51:25.962Z,1.80
2023-03-20T18:53:54.045Z,2.03
2023-03-20T18:56:25.343Z,2.35
2023-03-20T18:58:54.350Z,2.13
2023-03-20T19:01:22.627Z,2.25
2023-03-20T19:03:53.673Z,2.30
2023-03-20T19:06:23.744Z,2.25
2023-03-20T19:08:53.698Z,2.03
2023-03-20T19:11:22.059Z,1.98
2023-03-20T19:13:52.245Z,2.10
2023-03-20T19:16:25.600Z,2.63
2023-03-20T19:18:54.743Z,2.30
2023-03-20T19:21:26.166Z,2.20
2023-03-20T19:23:56.943Z,2.22
2023-03-20T19:26:27.063Z,2.60
2023-03-20T19:28:56.325Z,2.42
2023-03-20T19:31:25.035Z,2.40
2023-03-20T19:33:53.167Z,2.70
2023-03-20T19:36:25.118Z,2.75
2023-03-20T19:38:53.020Z,2.90
2023-03-20T19:41:22.276Z,2.90
2023-03-20T19:43:54.043Z,2.70
2023-03-20T19:46:39.275Z,2.95
2023-03-20T19:49:10.948Z,2.60
2023-03-20T19:51:38.938Z,2.70
2023-03-20T19:54:07.437Z,2.58
2023-03-20T19:56:36.902Z,2.35
2023-03-20T19:59:06.106Z,2.75
2023-03-20T20:01:34.226Z,2.30
2023-03-20T20:04:02.145Z,2.25
2023-03-20T20:06:32.599Z,2.40
2023-03-20T20:09:01.009Z,2.50
2023-03-20T20:11:29.329Z,1.85
2023-03-20T20:14:08.478Z,2.83
2023-03-20T20:16:39.597Z,2.70
2023-03-20T20:19:08.047Z,2.25
2023-03-20T20:22:19.429Z,2.53
2023-03-20T20:24:24.323Z,2.50
2023-03-20T20:26:59.670Z,2.08
2023-03-20T20:29:32.714Z,2.38
2023-03-20T20:32:01.390Z,1.95
2023-03-20T20:40:07.263Z,2.38
2023-03-20T20:42:37.022Z,2.55
2023-03-20T20:45:08.454Z,2.55
2023-03-20T20:47:36.646Z,2.33
2023-03-20T20:50:05.371Z,2.08
2023-03-20T20:52:39.176Z,2.20
2023-03-20T20:55:22.188Z,2.40
2023-03-20T20:57:51.764Z,2.30
2023-03-20T21:00:27.447Z,2.40
2023-03-20T21:02:57.640Z,2.38
2023-03-20T21:05:26.962Z,2.40
2023-03-20T21:07:54.799Z,2.20
2023-03-20T21:10:23.243Z,2.45
2023-03-20T21:12:59.103Z,2.40
2023-03-20T21:15:28.933Z,2.30
2023-03-20T21:18:01.741Z,2.20
2023-03-20T21:20:30.455Z,2.78
2023-03-20T21:22:58.311Z,2.42
2023-03-20T21:25:39.242Z,2.40
2023-03-20T21:28:08.755Z,2.50
2023-03-20T21:30:44.247Z,2.28
2023-03-20T21:33:18.942Z,2.13
2023-03-20T21:35:46.935Z,2.17
2023-03-20T21:39:01.884Z,2.30
2023-03-20T21:41:09.077Z,1.90
2023-03-20T21:43:36.937Z,1.90
2023-03-20T21:57:55.796Z,2.15
2023-03-20T22:03:01.599Z,2.13
2023-03-20T22:14:56.859Z,2.10
2023-03-20T22:20:27.536Z,2.08
2023-03-20T22:25:56.032Z,2.03
2023-03-20T22:34:24.128Z,2.00
2023-03-20T22:37:27.696Z,2.00
2023-03-20T22:42:49.080Z,2.30
2023-03-20T22:45:01.775Z,1.92
2023-03-20T22:47:32.388Z,2.22
2023-03-20T22:50:00.336Z,2.72
2023-03-20T22:52:42.019Z,2.08
2023-03-20T22:55:17.001Z,2.03
2023-03-20T22:57:56.181Z,1.90
2023-03-20T23:00:31.783Z,1.90
2023-03-20T23:03:13.673Z,2.25
2023-03-20T23:05:43.765Z,2.20
2023-03-20T23:08:13.314Z,2.45
2023-03-20T23:10:44.405Z,2.30
2023-03-20T23:13:12.499Z,2.22
2023-03-20T23:15:40.365Z,2.40
2023-03-20T23:18:09.524Z,2.55
2023-03-20T23:20:37.553Z,2.50
2023-03-20T23:23:05.675Z,2.20
2023-03-20T23:25:41.851Z,2.60
2023-03-20T23:28:10.950Z,2.40
2023-03-20T23:30:48.082Z,2.53
2023-03-20T23:33:19.742Z,2.47
2023-03-20T23:35:48.804Z,2.50
2023-03-20T23:38:17.570Z,2.33
2023-03-20T23:40:51.394Z,2.58
2023-03-20T23:43:19.538Z,2.40
2023-03-20T23:45:47.861Z,2.88
2023-03-20T23:48:15.970Z,2.80
2023-03-20T23:50:52.700Z,2.55
2023-03-20T23:53:22.063Z,2.70
2023-03-20T23:55:53.686Z,2.40
2023-03-20T23:58:23.422Z,2.80
